Главная страница
METAR-TAF:

METAR-TAF

Аэропорты :

Гаррисберг / Middletown, Пенсильвания, США

широта: 40-11-37N, долгота: 076-45-48W, высота над уровнем моря: 95 м

Текущие метеонаблюдения

Эта сводка был подготовлена 7 минут назад, в 21:56 UTC
Ветер 7 Узел от юго-западный
Температура 12°C
Влажность 76%
Давление 1011 hPa
Видимость: 6.4 км
Сплошная облачность на высоте 4600 фута
небольшой дождь, дымка

METAR: KMDT 072156Z 23007KT 4SM -RA BR OVC046 12/08 A2986 RMK AO2 SLP114 P0007 T01170078

Время: 18:03 (22:03 UTC)

Прогноз

Эта сводка был подготовлена 46 минут назад, в 21:17 UTC
Прогноз действительный с 07-го 21 UTC до 08-го 18 UTC
Ветер 5 Узел от северо-западный
Видимость: 8.0 км
Сплошная облачность на высоте 3500 фута
небольшой дождь, дымка
С 08-го 0500 UTC
Ветер 6 Узел от западный
Видимость: 10 км
Рассеянная облачность на высоте 3500 фута

TAF: KMDT 072117Z 0721/0818 31005KT 5SM -RA BR OVC035 FM080500 26006KT P6SM BKN035

Метеонаблюдения и прогнозы для более 4000 аэропортов (сводки METAR и TAF).

Имеющиеся станции представлены на карте желтыми и красными точками.

Чтобы увидеть название станции, наведите на нее мышь.

Затем щелкните, чтобы увидеть метеонаблюдения и метеопрогнозы.

Управление картой: чтобы увеличить масштаб, щелкните зеленые кнопки с черным крестиком; чтобы уменьшить масштаб, щелкните зеленую кнопку с тире; для просмотра соседних карт щелкайте зеленые стрелки.


METAR-TAF: